Time;durP1;ratioP1;P1;durP2;ratioP2;P2;SDS_P1;SDS_P2;PMS_P1;PMS_P2;Temp;Humidity;BMP_temperature;BMP_pressure;BME280_temperature;BME280_humidity;BME280_pressure;Samples;Min_cycle;Max_cycle;Signal;HPM_P1;HPM_P2
2022/04/18 00:01:50;;;;;;;19.38;13.23;;;7.60;99.90;;;;;;5101896;28;20084;-66
2022/04/18 00:04:16;;;;;;;21.10;13.07;;;7.70;99.90;;;;;;5103184;28;20102;-67
2022/04/18 00:06:41;;;;;;;18.95;13.38;;;7.70;99.90;;;;;;5100976;28;20111;-68
2022/04/18 00:09:07;;;;;;;20.55;13.73;;;7.80;99.90;;;;;;5103011;28;20088;-67
2022/04/18 00:11:33;;;;;;;20.88;12.60;;;7.80;99.90;;;;;;5100817;28;20024;-67
2022/04/18 00:13:59;;;;;;;21.50;12.77;;;7.70;99.90;;;;;;5102941;28;20040;-67
2022/04/18 00:16:25;;;;;;;21.17;14.23;;;7.60;99.90;;;;;;5101303;28;20024;-66
2022/04/18 00:18:52;;;;;;;24.98;13.70;;;7.70;99.90;;;;;;5101965;28;20024;-67
2022/04/18 00:21:18;;;;;;;21.92;13.70;;;7.60;99.90;;;;;;5102887;28;20044;-67
2022/04/18 00:23:44;;;;;;;19.73;13.20;;;7.60;99.90;;;;;;5100827;28;20028;-67
2022/04/18 00:26:10;;;;;;;22.23;14.60;;;7.60;99.90;;;;;;5102744;28;20055;-67
2022/04/18 00:28:36;;;;;;;23.60;14.32;;;7.60;99.90;;;;;;5100851;28;20825;-67
2022/04/18 00:31:01;;;;;;;20.45;14.38;;;7.60;99.90;;;;;;5102921;28;20028;-67
2022/04/18 00:33:27;;;;;;;21.80;14.30;;;7.50;99.90;;;;;;5101510;28;20036;-67
2022/04/18 00:35:53;;;;;;;22.92;14.88;;;7.50;99.90;;;;;;5083973;28;20031;-67
2022/04/18 00:38:19;;;;;;;21.95;14.18;;;7.40;99.90;;;;;;5102692;28;20020;-67
2022/04/18 00:40:45;;;;;;;23.02;14.10;;;7.40;99.90;;;;;;5100678;28;20027;-67
2022/04/18 00:43:11;;;;;;;23.17;14.65;;;7.40;99.90;;;;;;5084454;28;20024;-67
2022/04/18 00:45:36;;;;;;;24.55;15.05;;;7.50;99.90;;;;;;5100506;28;20024;-68
2022/04/18 00:48:03;;;;;;;22.08;14.50;;;7.50;99.90;;;;;;5102734;28;20020;-68
2022/04/18 00:50:34;;;;;;;24.42;15.05;;;7.40;99.90;;;;;;5101003;28;20389;-67
2022/04/18 00:53:00;;;;;;;21.23;14.38;;;7.40;99.90;;;;;;5101835;28;20594;-67
2022/04/18 00:55:27;;;;;;;22.73;15.90;;;7.50;99.90;;;;;;5102222;28;20055;-68
2022/04/18 00:57:55;;;;;;;24.20;16.02;;;7.60;99.90;;;;;;5101607;28;20028;-68
2022/04/18 01:00:22;;;;;;;25.02;15.80;;;7.40;99.90;;;;;;5106404;28;20020;-67
2022/04/18 01:02:48;;;;;;;23.20;15.43;;;7.50;99.90;;;;;;5104201;28;20027;-67
2022/04/18 01:05:13;;;;;;;20.92;14.95;;;7.50;99.90;;;;;;5106293;28;20024;-67
2022/04/18 01:07:39;;;;;;;21.33;14.18;;;7.40;99.90;;;;;;5086363;28;20539;-67
2022/04/18 01:10:07;;;;;;;20.48;14.85;;;7.40;99.90;;;;;;5087250;28;20043;-67
2022/04/18 01:12:34;;;;;;;22.52;14.95;;;7.40;99.90;;;;;;5087631;28;20023;-67
2022/04/18 01:14:59;;;;;;;24.98;16.48;;;7.50;99.90;;;;;;5103503;28;20044;-68
2022/04/18 01:17:26;;;;;;;23.08;15.45;;;7.40;99.90;;;;;;5087803;28;20121;-68
2022/04/18 01:19:51;;;;;;;21.23;15.02;;;7.40;99.90;;;;;;5085633;28;20029;-68
2022/04/18 01:22:22;;;;;;;23.67;15.73;;;7.40;99.90;;;;;;5105978;28;20024;-68
2022/04/18 01:30:17;;;;;;;24.17;15.95;;;7.40;99.90;;;;;;5106148;28;20443;-68
2022/04/18 01:32:42;;;;;;;22.38;15.98;;;7.40;99.90;;;;;;5103616;28;20025;-67
2022/04/18 01:35:08;;;;;;;21.63;15.27;;;7.30;99.90;;;;;;5105561;28;20044;-68
2022/04/18 01:37:36;;;;;;;26.00;15.63;;;7.30;99.90;;;;;;5085623;28;20476;-68
2022/04/18 01:40:02;;;;;;;22.45;14.85;;;7.20;99.90;;;;;;5105248;28;20032;-68
2022/04/18 01:42:28;;;;;;;23.00;15.10;;;7.10;99.90;;;;;;5105352;28;20040;-68
2022/04/18 01:44:54;;;;;;;21.35;13.85;;;7.10;99.90;;;;;;5103777;28;20062;-67
2022/04/18 01:47:20;;;;;;;26.20;15.50;;;7.10;99.90;;;;;;5105055;28;20050;-67
2022/04/18 01:49:45;;;;;;;22.92;14.90;;;6.90;99.90;;;;;;5103389;28;20122;-67
2022/04/18 01:52:11;;;;;;;21.63;14.80;;;6.90;99.90;;;;;;5105314;28;20035;-67
2022/04/18 01:54:36;;;;;;;23.38;15.07;;;6.70;99.90;;;;;;5102988;28;20052;-67
2022/04/18 01:57:02;;;;;;;23.67;15.13;;;6.70;99.90;;;;;;5105044;28;20029;-67
2022/04/18 01:59:28;;;;;;;21.95;15.00;;;6.70;99.90;;;;;;5104762;28;20028;-67
2022/04/18 02:01:53;;;;;;;23.02;15.02;;;6.60;99.90;;;;;;5085595;28;20048;-69
2022/04/18 02:04:19;;;;;;;25.30;15.88;;;6.60;99.90;;;;;;5105179;28;20401;-68
2022/04/18 02:06:44;;;;;;;27.30;15.93;;;6.60;99.90;;;;;;5103077;28;20059;-69
2022/04/18 02:09:10;;;;;;;22.55;14.55;;;6.60;99.90;;;;;;5104710;28;20028;-69
2022/04/18 02:11:36;;;;;;;27.42;17.02;;;6.60;99.90;;;;;;5103019;28;20099;-69
2022/04/18 02:14:01;;;;;;;23.58;16.85;;;6.50;99.90;;;;;;5086639;28;20036;-69
2022/04/18 02:16:28;;;;;;;24.67;16.13;;;6.50;99.90;;;;;;5103422;28;20058;-69
2022/04/18 02:18:55;;;;;;;25.73;16.08;;;6.60;99.90;;;;;;5085489;28;20028;-69
2022/04/18 02:21:20;;;;;;;25.77;16.15;;;6.60;99.90;;;;;;5086409;28;20147;-69
2022/04/18 02:23:46;;;;;;;24.02;15.77;;;6.60;99.90;;;;;;5102660;28;20035;-69
2022/04/18 02:26:11;;;;;;;23.63;16.65;;;6.50;99.90;;;;;;5104712;28;20016;-68
2022/04/18 02:28:37;;;;;;;25.10;15.80;;;6.40;99.90;;;;;;5102786;28;20024;-69
2022/04/18 02:31:06;;;;;;;28.27;15.95;;;6.40;99.90;;;;;;5104652;28;20047;-69
2022/04/18 02:33:32;;;;;;;25.23;16.33;;;6.30;99.90;;;;;;5103411;28;20028;-69
2022/04/18 02:35:57;;;;;;;24.67;16.98;;;6.30;99.90;;;;;;5085298;28;20473;-69
2022/04/18 02:38:23;;;;;;;24.15;16.45;;;6.30;99.90;;;;;;5104493;28;20028;-68
2022/04/18 02:40:48;;;;;;;26.20;16.75;;;6.30;99.90;;;;;;5084129;28;20486;-68
2022/04/18 02:43:14;;;;;;;24.40;16.55;;;6.30;99.90;;;;;;5104296;28;20071;-68
2022/04/18 02:45:40;;;;;;;24.55;16.13;;;6.20;99.90;;;;;;5101767;28;20094;-68
2022/04/18 02:48:06;;;;;;;23.98;16.30;;;6.20;99.90;;;;;;5104230;28;20020;-68
2022/04/18 02:50:31;;;;;;;26.05;16.33;;;6.10;99.90;;;;;;5102824;28;20043;-68
2022/04/18 02:52:57;;;;;;;24.88;17.30;;;6.10;99.90;;;;;;5103663;28;20059;-68
2022/04/18 02:55:25;;;;;;;27.38;16.52;;;6.10;99.90;;;;;;5103871;28;20051;-68
2022/04/18 02:57:51;;;;;;;25.98;17.15;;;6.00;99.90;;;;;;5102061;28;20381;-68
2022/04/18 03:00:17;;;;;;;25.65;16.77;;;6.00;99.90;;;;;;5086159;28;20032;-68
2022/04/18 03:02:43;;;;;;;27.20;16.65;;;5.90;99.90;;;;;;5101780;28;20054;-68
2022/04/18 03:05:10;;;;;;;24.20;16.85;;;5.90;99.90;;;;;;5103890;28;20047;-68
2022/04/18 03:07:36;;;;;;;23.48;16.42;;;5.90;99.90;;;;;;5102378;28;20028;-68
2022/04/18 03:10:02;;;;;;;25.48;16.48;;;5.90;99.90;;;;;;5103356;28;20024;-68
2022/04/18 03:12:28;;;;;;;27.05;17.25;;;5.90;99.90;;;;;;5103845;28;20095;-68
2022/04/18 03:14:54;;;;;;;31.50;18.45;;;5.80;99.90;;;;;;5102033;28;20055;-68
2022/04/18 03:17:19;;;;;;;25.95;16.95;;;5.80;99.90;;;;;;5103204;28;20139;-67
2022/04/18 03:19:45;;;;;;;28.25;17.35;;;5.80;99.90;;;;;;5101436;28;20036;-67
2022/04/18 03:22:11;;;;;;;29.35;17.70;;;5.80;99.90;;;;;;5102824;28;20366;-68
2022/04/18 03:24:37;;;;;;;25.80;17.50;;;5.80;99.90;;;;;;5101807;28;20423;-68
2022/04/18 03:27:03;;;;;;;24.08;17.10;;;5.80;99.90;;;;;;5103463;28;20482;-68
2022/04/18 03:29:31;;;;;;;27.77;17.67;;;5.70;99.90;;;;;;5103050;28;20039;-68
2022/04/18 03:31:57;;;;;;;29.60;18.20;;;5.70;99.90;;;;;;5101509;28;20500;-68
2022/04/18 03:34:23;;;;;;;25.58;16.92;;;5.80;99.90;;;;;;5103561;28;20035;-68
2022/04/18 03:39:54;;;;;;;28.38;17.67;;;5.70;99.90;;;;;;5103547;28;20066;-69
2022/04/18 03:42:29;;;;;;;27.35;18.38;;;5.70;99.90;;;;;;5103110;28;20035;-68
2022/04/18 03:45:01;;;;;;;27.77;18.88;;;5.60;99.90;;;;;;5101323;28;20028;-68
2022/04/18 03:47:27;;;;;;;27.55;18.17;;;5.60;99.90;;;;;;5102954;28;20021;-68
2022/04/18 03:49:53;;;;;;;26.67;17.83;;;5.50;99.90;;;;;;5101307;28;20380;-68
2022/04/18 03:52:19;;;;;;;27.15;18.35;;;5.50;99.90;;;;;;5103289;28;20471;-69
2022/04/18 03:54:46;;;;;;;30.27;18.70;;;5.50;99.90;;;;;;5101641;28;20048;-68
2022/04/18 03:57:13;;;;;;;27.50;18.00;;;5.60;99.90;;;;;;5102587;28;20021;-69
2022/04/18 03:59:39;;;;;;;28.88;18.38;;;5.60;99.90;;;;;;5103015;28;20028;-69
2022/04/18 04:02:05;;;;;;;27.70;18.30;;;5.60;99.90;;;;;;5082910;28;20043;-69
2022/04/18 04:04:31;;;;;;;28.13;18.58;;;5.60;99.90;;;;;;5084946;28;20484;-69
2022/04/18 04:06:56;;;;;;;27.20;17.52;;;5.60;99.90;;;;;;5101126;28;20020;-69
2022/04/18 04:09:22;;;;;;;27.80;17.75;;;5.60;99.90;;;;;;5102953;28;20039;-69
2022/04/18 04:11:48;;;;;;;27.05;17.83;;;5.70;99.90;;;;;;5083403;28;20063;-68
2022/04/18 04:14:13;;;;;;;26.23;17.20;;;5.70;99.90;;;;;;5102473;28;20040;-68
2022/04/18 04:16:39;;;;;;;24.35;16.67;;;5.60;99.90;;;;;;5102117;28;20024;-68
2022/04/18 04:19:05;;;;;;;27.92;17.65;;;5.70;99.90;;;;;;5101168;28;20036;-69
2022/04/18 04:21:32;;;;;;;27.50;16.58;;;5.60;99.90;;;;;;5102862;28;20027;-68
2022/04/18 04:23:58;;;;;;;25.83;17.50;;;5.60;99.90;;;;;;5100557;28;20081;-68
2022/04/18 04:26:26;;;;;;;27.40;17.08;;;5.60;99.90;;;;;;5102739;28;20032;-68
2022/04/18 04:28:52;;;;;;;25.67;16.83;;;5.60;99.90;;;;;;5083275;28;20047;-68
2022/04/18 04:31:17;;;;;;;25.50;16.83;;;5.60;99.90;;;;;;5102525;28;20033;-69
2022/04/18 04:33:43;;;;;;;24.05;16.55;;;5.60;99.90;;;;;;5104685;28;20040;-68
2022/04/18 04:36:08;;;;;;;25.77;16.58;;;5.50;99.90;;;;;;5086852;28;20055;-68
2022/04/18 04:38:34;;;;;;;24.98;16.00;;;5.50;99.90;;;;;;5088502;28;20032;-69
2022/04/18 04:41:02;;;;;;;23.63;16.00;;;5.50;99.90;;;;;;5104647;28;20035;-68
2022/04/18 04:43:28;;;;;;;25.48;17.35;;;5.50;99.90;;;;;;5088914;28;20035;-68
2022/04/18 04:46:00;;;;;;;30.05;16.70;;;5.40;99.90;;;;;;5104142;28;20024;-68
2022/04/18 04:48:26;;;;;;;24.70;16.42;;;5.40;99.90;;;;;;5087938;28;20050;-69
2022/04/18 04:50:52;;;;;;;24.80;16.17;;;5.40;99.90;;;;;;5105992;28;20016;-68
2022/04/18 04:53:18;;;;;;;24.38;16.38;;;5.40;99.90;;;;;;5104801;28;20035;-68
2022/04/18 04:55:44;;;;;;;26.42;16.98;;;5.40;99.90;;;;;;5106293;28;20040;-68
2022/04/18 04:58:10;;;;;;;24.13;15.63;;;5.40;99.90;;;;;;5104380;28;20473;-69
2022/04/18 05:00:37;;;;;;;27.52;16.70;;;5.30;99.90;;;;;;5106379;28;20080;-69
2022/04/18 05:03:03;;;;;;;24.80;16.63;;;5.40;99.90;;;;;;5085920;28;20023;-68
2022/04/18 05:05:29;;;;;;;24.13;15.77;;;5.50;99.90;;;;;;5105953;28;20032;-68
2022/04/18 05:07:57;;;;;;;26.13;16.20;;;5.50;99.90;;;;;;5105506;28;20451;-68
2022/04/18 05:10:23;;;;;;;26.20;16.48;;;5.50;99.90;;;;;;5086809;28;20031;-69
2022/04/18 05:12:49;;;;;;;25.15;16.10;;;5.50;99.90;;;;;;5106096;28;20028;-69
2022/04/18 05:15:14;;;;;;;25.42;16.42;;;5.60;99.90;;;;;;5103488;28;20040;-69
2022/04/18 05:17:40;;;;;;;25.67;17.50;;;5.60;99.90;;;;;;5106177;28;20506;-68
2022/04/18 05:20:06;;;;;;;24.02;15.82;;;5.70;99.90;;;;;;5104164;28;20031;-67
2022/04/18 05:22:33;;;;;;;24.65;16.75;;;5.70;99.90;;;;;;5087787;28;20024;-68
2022/04/18 05:24:59;;;;;;;23.88;16.65;;;5.70;99.90;;;;;;5105231;28;20496;-69
2022/04/18 05:27:25;;;;;;;24.13;16.60;;;5.80;99.90;;;;;;5104908;28;20099;-68
2022/04/18 05:29:51;;;;;;;25.73;17.73;;;5.90;99.90;;;;;;5105937;28;20047;-67
2022/04/18 05:32:17;;;;;;;25.00;17.00;;;5.90;99.90;;;;;;5103652;28;20473;-68
2022/04/18 05:34:43;;;;;;;26.95;17.90;;;6.00;99.90;;;;;;5105602;28;20040;-67
2022/04/18 05:37:09;;;;;;;25.98;17.35;;;6.20;99.90;;;;;;5103462;28;20020;-68
2022/04/18 05:39:35;;;;;;;25.65;16.15;;;6.20;99.90;;;;;;5105683;28;20092;-68
2022/04/18 05:42:01;;;;;;;28.60;17.95;;;6.30;99.90;;;;;;5104516;28;20029;-67
2022/04/18 05:44:27;;;;;;;24.45;16.15;;;6.50;99.90;;;;;;5103696;28;20028;-68
2022/04/18 05:46:53;;;;;;;25.15;15.63;;;6.80;99.90;;;;;;5087072;28;20035;-67
2022/04/18 05:49:19;;;;;;;27.15;17.13;;;7.30;99.90;;;;;;5103305;28;20088;-68
2022/04/18 05:51:44;;;;;;;25.85;16.58;;;7.80;99.90;;;;;;5105336;28;20024;-68
2022/04/18 05:54:10;;;;;;;23.10;15.82;;;8.60;99.90;;;;;;5102883;28;20032;-67
2022/04/18 05:56:36;;;;;;;27.00;16.40;;;9.20;99.90;;;;;;5066715;28;20049;-67
2022/04/18 05:59:02;;;;;;;23.73;16.55;;;9.30;99.90;;;;;;5063608;28;20029;-67
2022/04/18 06:01:29;;;;;;;25.95;16.25;;;9.30;99.90;;;;;;5064147;28;20040;-68
2022/04/18 06:03:55;;;;;;;25.42;15.57;;;9.60;98.50;;;;;;5064766;28;20036;-68
2022/04/18 06:06:21;;;;;;;25.75;16.25;;;9.40;97.80;;;;;;5061789;28;20116;-68
2022/04/18 06:08:46;;;;;;;24.40;16.95;;;9.70;98.60;;;;;;5063348;28;20527;-68
2022/04/18 06:11:12;;;;;;;23.45;15.98;;;10.30;95.70;;;;;;5062518;28;20026;-68
2022/04/18 06:13:38;;;;;;;25.67;17.02;;;10.90;86.40;;;;;;5064494;28;20040;-69
2022/04/18 06:16:04;;;;;;;24.00;15.77;;;11.30;85.30;;;;;;5062743;28;20031;-68
2022/04/18 06:18:30;;;;;;;23.75;15.30;;;11.40;88.80;;;;;;5064035;28;20025;-68
2022/04/18 06:20:55;;;;;;;20.90;15.00;;;12.20;77.00;;;;;;5064736;28;20479;-68
2022/04/18 06:23:21;;;;;;;21.13;15.40;;;12.60;69.80;;;;;;5062719;28;20036;-69
2022/04/18 06:25:47;;;;;;;23.50;15.38;;;12.90;67.10;;;;;;5064452;28;20049;-69
2022/04/18 06:28:12;;;;;;;21.30;15.27;;;13.20;66.60;;;;;;5062357;28;20091;-69
2022/04/18 06:30:38;;;;;;;21.27;14.68;;;12.90;61.70;;;;;;5064424;28;20021;-69
2022/04/18 06:33:05;;;;;;;21.02;14.10;;;13.80;64.90;;;;;;5062368;28;20025;-69
2022/04/18 06:35:30;;;;;;;24.83;14.93;;;14.70;62.00;;;;;;5063827;28;20037;-69
2022/04/18 06:37:56;;;;;;;20.25;15.07;;;14.60;57.10;;;;;;5063658;28;20021;-68
2022/04/18 06:40:22;;;;;;;24.20;14.68;;;14.90;56.50;;;;;;5061112;28;20438;-69
2022/04/18 06:42:47;;;;;;;21.02;14.43;;;15.40;53.40;;;;;;5063873;28;20044;-69
2022/04/18 06:45:14;;;;;;;21.60;14.25;;;15.80;53.60;;;;;;5061863;28;20029;-68
2022/04/18 06:47:39;;;;;;;22.55;14.57;;;16.50;53.10;;;;;;5062053;28;20033;-69
2022/04/18 06:50:12;;;;;;;19.48;14.48;;;16.40;50.50;;;;;;5061725;28;20036;-67
2022/04/18 06:52:49;;;;;;;22.17;14.20;;;16.60;50.30;;;;;;5063657;28;20033;-67
2022/04/18 06:55:15;;;;;;;22.55;14.90;;;16.00;51.20;;;;;;5074806;28;20055;-67
2022/04/18 06:57:41;;;;;;;20.95;13.65;;;16.30;52.40;;;;;;5102303;28;20012;-67
2022/04/18 07:00:08;;;;;;;22.98;14.48;;;16.20;52.30;;;;;;5103977;28;20446;-67
2022/04/18 07:02:33;;;;;;;19.65;13.05;;;15.70;50.10;;;;;;5101738;28;20020;-67
2022/04/18 07:04:59;;;;;;;21.33;13.02;;;15.30;54.00;;;;;;5104261;28;20104;-68
2022/04/18 07:07:25;;;;;;;20.88;13.98;;;15.30;54.00;;;;;;5102242;28;20028;-68
2022/04/18 07:09:51;;;;;;;19.27;12.10;;;16.00;55.80;;;;;;5103396;28;20127;-68
2022/04/18 07:12:22;;;;;;;21.83;13.20;;;16.00;54.60;;;;;;5103536;28;20020;-68
2022/04/18 07:14:48;;;;;;;19.15;13.13;;;15.10;50.70;;;;;;5101735;28;20040;-68
2022/04/18 07:17:13;;;;;;;20.08;12.80;;;15.30;53.40;;;;;;5103326;28;20028;-68
2022/04/18 07:19:39;;;;;;;20.60;13.45;;;15.50;53.40;;;;;;5101657;28;20052;-68
2022/04/18 07:22:06;;;;;;;18.60;12.35;;;15.20;53.30;;;;;;5103823;28;20566;-68
2022/04/18 07:24:32;;;;;;;18.67;12.48;;;15.80;56.70;;;;;;5101676;28;20057;-68
2022/04/18 07:27:00;;;;;;;20.40;13.05;;;16.30;55.40;;;;;;5103334;28;20024;-68
2022/04/18 07:29:27;;;;;;;19.98;12.07;;;16.80;55.40;;;;;;5068442;28;20401;-68
2022/04/18 07:31:53;;;;;;;15.07;11.70;;;17.20;51.70;;;;;;5101843;28;20436;-68
2022/04/18 07:34:19;;;;;;;16.70;11.00;;;17.20;50.50;;;;;;5103332;28;20024;-68
2022/04/18 07:36:44;;;;;;;16.98;11.00;;;17.80;52.70;;;;;;5083010;28;20020;-68
2022/04/18 07:39:10;;;;;;;17.23;10.68;;;18.20;48.60;;;;;;5085298;28;20069;-69
2022/04/18 07:41:36;;;;;;;14.35;10.38;;;18.30;46.20;;;;;;5101416;28;20505;-68
2022/04/18 07:44:03;;;;;;;14.32;9.65;;;18.70;48.00;;;;;;5102976;28;20030;-68
2022/04/18 07:46:30;;;;;;;16.55;10.68;;;19.30;45.40;;;;;;5102308;28;20068;-68
2022/04/18 07:48:56;;;;;;;15.07;10.38;;;20.20;44.50;;;;;;5101658;28;20079;-69
2022/04/18 07:54:09;;;;;;;14.88;10.73;;;22.00;41.40;;;;;;5101202;28;20077;-68
2022/04/18 07:56:35;;;;;;;15.57;10.15;;;22.50;38.00;;;;;;5104035;28;20051;-67
2022/04/18 07:59:01;;;;;;;16.45;10.23;;;23.60;37.60;;;;;;5104066;28;20025;-67
2022/04/18 08:01:27;;;;;;;14.15;9.57;;;24.40;37.00;;;;;;5069152;28;20054;-67
2022/04/18 08:03:53;;;;;;;13.48;9.05;;;24.90;36.10;;;;;;5104841;28;20032;-68
2022/04/18 08:06:20;;;;;;;15.05;9.77;;;25.70;35.50;;;;;;5084955;28;20024;-68
2022/04/18 08:08:46;;;;;;;13.77;9.57;;;25.60;33.10;;;;;;5102614;28;20531;-68
2022/04/18 08:11:14;;;;;;;15.40;10.20;;;25.70;34.90;;;;;;5100902;28;20107;-68
2022/04/18 08:13:42;;;;;;;14.35;10.15;;;26.80;34.70;;;;;;5103090;28;20051;-68
2022/04/18 08:16:08;;;;;;;16.58;10.25;;;27.60;32.90;;;;;;5101112;28;20039;-68
2022/04/18 08:18:36;;;;;;;15.63;9.77;;;27.20;33.10;;;;;;5102050;28;20023;-67
2022/04/18 08:21:03;;;;;;;14.60;10.18;;;27.70;33.50;;;;;;5102836;28;20020;-68
2022/04/18 08:23:30;;;;;;;15.70;10.27;;;28.10;31.90;;;;;;5082745;28;20027;-67
2022/04/18 08:25:55;;;;;;;13.45;9.75;;;27.30;29.30;;;;;;5102729;28;20066;-68
2022/04/18 08:28:21;;;;;;;13.63;9.27;;;28.10;31.40;;;;;;5100680;28;20028;-68
2022/04/18 08:30:46;;;;;;;14.05;9.57;;;28.90;30.90;;;;;;5102822;28;20075;-67
2022/04/18 08:33:12;;;;;;;13.57;9.02;;;28.60;30.20;;;;;;5101279;28;20020;-67
2022/04/18 08:35:38;;;;;;;12.15;8.82;;;28.30;30.00;;;;;;5101983;28;20040;-67
2022/04/18 08:38:04;;;;;;;13.18;8.85;;;28.40;29.80;;;;;;5102807;28;20044;-68
2022/04/18 08:40:30;;;;;;;13.43;9.13;;;28.80;29.90;;;;;;5082223;28;20374;-67
2022/04/18 08:42:56;;;;;;;12.90;8.50;;;28.80;30.50;;;;;;5102656;28;20016;-67
2022/04/18 08:45:24;;;;;;;13.68;9.07;;;28.90;30.00;;;;;;5100524;28;20047;-67
2022/04/18 08:53:28;;;;;;;12.85;8.68;;;28.90;27.90;;;;;;5100929;28;20138;-67
2022/04/18 08:55:54;;;;;;;14.45;9.23;;;29.20;30.00;;;;;;5102483;28;20044;-67
2022/04/18 08:58:23;;;;;;;15.35;9.30;;;29.60;29.50;;;;;;5098898;28;20077;-67
2022/04/18 09:00:50;;;;;;;13.85;8.95;;;29.30;29.60;;;;;;5102544;28;20031;-67
2022/04/18 09:03:16;;;;;;;13.80;8.75;;;28.90;29.30;;;;;;5101324;28;20024;-67
2022/04/18 09:05:42;;;;;;;14.70;9.75;;;29.90;31.00;;;;;;5101681;28;20028;-67
2022/04/18 09:08:09;;;;;;;15.23;9.77;;;29.70;30.60;;;;;;5102425;28;20024;-65
2022/04/18 09:10:36;;;;;;;15.30;9.43;;;29.70;28.00;;;;;;5100455;28;20020;-66
2022/04/18 09:13:10;;;;;;;13.50;9.50;;;28.50;31.40;;;;;;5102375;28;20020;-66
2022/04/18 09:15:41;;;;;;;13.35;9.82;;;28.30;31.30;;;;;;5099782;28;20040;-67
2022/04/18 09:18:08;;;;;;;14.68;9.25;;;27.40;32.30;;;;;;5102282;28;20457;-66
2022/04/18 09:21:03;;;;;;;12.88;8.95;;;26.70;33.10;;;;;;5103384;28;20173;-66
2022/04/18 09:23:31;;;;;;;12.85;8.48;;;26.30;33.50;;;;;;5101897;28;20036;-66
2022/04/18 09:26:02;;;;;;;13.23;9.27;;;26.00;34.00;;;;;;5105758;28;20028;-66
2022/04/18 09:28:31;;;;;;;12.00;8.95;;;26.10;35.20;;;;;;5103514;28;20016;-66
2022/04/18 09:31:08;;;;;;;12.13;8.55;;;25.50;35.50;;;;;;5105624;28;20020;-66
2022/04/18 09:33:42;;;;;;;14.80;9.40;;;25.70;33.30;;;;;;5105051;28;20016;-66
2022/04/18 09:36:17;;;;;;;12.98;8.48;;;24.80;31.30;;;;;;5103906;28;20052;-66
2022/04/18 09:38:50;;;;;;;13.48;8.80;;;24.90;35.10;;;;;;5087315;28;20023;-67
2022/04/18 09:41:25;;;;;;;14.00;8.65;;;25.50;35.10;;;;;;5103612;28;20334;-66
2022/04/18 09:43:53;;;;;;;13.98;9.23;;;25.60;34.00;;;;;;5105397;28;20092;-66
2022/04/18 09:46:19;;;;;;;13.70;8.65;;;26.40;33.90;;;;;;5104162;28;20016;-66
2022/04/18 09:48:46;;;;;;;11.95;7.93;;;26.60;33.00;;;;;;5102639;28;20052;-66
2022/04/18 09:51:27;;;;;;;13.18;8.25;;;27.70;30.20;;;;;;5105377;28;20028;-66
2022/04/18 09:53:57;;;;;;;11.93;8.70;;;26.50;29.00;;;;;;5103075;28;20070;-66
2022/04/18 09:56:24;;;;;;;12.20;8.13;;;26.20;29.80;;;;;;5087332;28;20093;-66
2022/04/18 09:58:50;;;;;;;11.10;7.65;;;27.40;31.30;;;;;;5085201;28;20040;-66
2022/04/18 10:01:16;;;;;;;10.80;7.20;;;27.40;29.20;;;;;;5104557;28;20016;-67
2022/04/18 10:03:48;;;;;;;12.75;8.27;;;28.50;31.30;;;;;;5104680;28;20048;-66
2022/04/18 10:06:14;;;;;;;11.15;7.15;;;29.20;28.90;;;;;;5102970;28;20036;-66
2022/04/18 10:08:39;;;;;;;11.73;7.75;;;30.20;30.00;;;;;;5104889;28;20020;-67
2022/04/18 10:11:08;;;;;;;12.40;6.80;;;31.30;28.20;;;;;;5102793;28;20028;-66
2022/04/18 10:13:36;;;;;;;12.82;7.63;;;31.30;28.40;;;;;;5104568;28;20053;-67
2022/04/18 10:16:04;;;;;;;11.10;6.55;;;31.80;27.70;;;;;;5102981;28;20123;-66
2022/04/18 10:18:32;;;;;;;10.52;7.28;;;32.40;28.00;;;;;;5103901;28;20050;-66
2022/04/18 10:21:07;;;;;;;12.02;6.70;;;32.80;26.90;;;;;;5104496;28;20092;-66
2022/04/18 10:23:50;;;;;;;12.60;7.30;;;32.20;28.20;;;;;;5102590;28;20035;-66
2022/04/18 10:26:42;;;;;;;10.02;6.53;;;33.00;27.40;;;;;;5104635;28;20478;-67
2022/04/18 10:29:12;;;;;;;12.80;6.72;;;34.00;27.90;;;;;;5103768;28;20042;-67
2022/04/18 10:31:40;;;;;;;10.80;6.47;;;31.90;26.00;;;;;;5102779;28;20074;-66
2022/04/18 10:34:07;;;;;;;13.00;6.55;;;33.10;27.80;;;;;;5104523;28;20119;-67
2022/04/18 10:36:34;;;;;;;10.05;6.55;;;33.80;26.90;;;;;;5102343;28;20024;-67
2022/04/18 10:39:07;;;;;;;8.60;5.45;;;32.80;25.50;;;;;;5104456;28;20050;-66
2022/04/18 10:41:38;;;;;;;11.45;5.93;;;33.30;26.50;;;;;;5102455;28;20095;-66
2022/04/18 10:44:09;;;;;;;9.77;5.10;;;32.60;24.60;;;;;;5103848;28;20032;-66
2022/04/18 10:46:40;;;;;;;10.88;6.30;;;32.70;25.20;;;;;;5103627;28;20111;-66
2022/04/18 10:49:17;;;;;;;8.60;5.43;;;33.40;26.10;;;;;;5067131;28;20468;-67
2022/04/18 10:51:45;;;;;;;10.15;5.88;;;33.80;27.00;;;;;;5104316;28;20486;-66
2022/04/18 10:54:31;;;;;;;8.95;4.88;;;33.50;26.00;;;;;;5101784;28;20046;-67
2022/04/18 10:56:58;;;;;;;6.85;3.00;;;33.70;26.70;;;;;;5103426;28;20122;-67
2022/04/18 10:59:26;;;;;;;7.60;4.00;;;32.90;24.90;;;;;;5103827;28;20054;-66
2022/04/18 11:01:54;;;;;;;10.10;4.95;;;31.90;24.90;;;;;;5101947;28;20029;-66
2022/04/18 11:04:38;;;;;;;8.95;4.32;;;32.20;26.10;;;;;;5104019;28;20024;-67
2022/04/18 11:07:09;;;;;;;8.02;4.10;;;33.10;26.40;;;;;;5101857;28;20102;-67
2022/04/18 11:09:44;;;;;;;6.43;3.60;;;31.50;24.00;;;;;;5103795;28;20043;-67
2022/04/18 11:12:12;;;;;;;6.47;3.05;;;31.40;23.50;;;;;;5102124;28;20479;-66
2022/04/18 11:14:37;;;;;;;6.65;2.97;;;32.00;25.80;;;;;;5101582;28;20040;-66
2022/04/18 11:17:04;;;;;;;7.63;3.88;;;32.20;24.40;;;;;;5103040;28;20031;-67
2022/04/18 11:19:38;;;;;;;7.68;3.67;;;31.10;23.80;;;;;;5101487;28;20032;-67
2022/04/18 11:22:06;;;;;;;7.57;3.90;;;31.00;24.10;;;;;;5103566;28;20028;-66
2022/04/18 11:24:58;;;;;;;6.70;3.88;;;31.40;26.00;;;;;;5083759;28;20032;-66
2022/04/18 11:27:26;;;;;;;8.27;4.97;;;31.80;24.90;;;;;;5102038;28;20039;-66
2022/04/18 11:29:56;;;;;;;8.55;4.97;;;31.80;26.60;;;;;;5103421;28;20377;-66
2022/04/18 11:32:34;;;;;;;9.35;5.03;;;31.00;25.70;;;;;;5101329;28;20031;-66
2022/04/18 11:35:01;;;;;;;8.65;4.60;;;31.90;26.00;;;;;;5103565;28;20039;-67
2022/04/18 11:37:39;;;;;;;6.97;4.18;;;30.40;25.60;;;;;;5102003;28;20069;-66
2022/04/18 11:40:11;;;;;;;8.63;4.90;;;30.90;24.50;;;;;;5102048;28;20469;-66
2022/04/18 11:42:38;;;;;;;8.00;4.68;;;31.80;26.70;;;;;;5084176;28;20077;-66
2022/04/18 11:45:09;;;;;;;9.93;4.75;;;31.80;26.60;;;;;;5101207;28;20020;-66
2022/04/18 11:47:48;;;;;;;7.75;4.68;;;31.40;24.00;;;;;;5102629;28;20047;-66
2022/04/18 11:50:23;;;;;;;7.65;4.07;;;30.30;26.90;;;;;;5101440;28;20047;-66
2022/04/18 11:52:59;;;;;;;7.93;4.45;;;31.00;27.30;;;;;;5085498;28;20028;-66
2022/04/18 11:55:24;;;;;;;8.90;5.30;;;31.30;27.20;;;;;;5102938;28;20063;-66
2022/04/18 11:57:50;;;;;;;10.43;5.03;;;30.00;25.60;;;;;;5082440;28;20123;-66
2022/04/18 12:08:36;;;;;;;9.40;5.50;;;28.20;26.20;;;;;;5103111;28;20051;-67
2022/04/18 12:11:01;;;;;;;9.15;5.55;;;28.60;27.00;;;;;;5100781;28;20023;-67
2022/04/18 12:13:27;;;;;;;7.85;5.22;;;28.30;27.60;;;;;;5103023;28;20031;-67
2022/04/18 12:15:53;;;;;;;9.93;4.97;;;28.70;27.00;;;;;;5100733;28;20036;-67
2022/04/18 12:18:20;;;;;;;9.45;5.22;;;29.30;26.80;;;;;;5102444;28;20027;-67
2022/04/18 12:20:50;;;;;;;7.75;4.88;;;29.50;27.80;;;;;;5102508;28;20035;-67
2022/04/18 12:23:24;;;;;;;8.90;5.20;;;29.40;27.40;;;;;;5100839;28;20025;-66
2022/04/18 12:25:55;;;;;;;8.07;5.07;;;29.30;26.00;;;;;;5102766;28;20111;-67
2022/04/18 12:28:23;;;;;;;8.07;5.40;;;29.60;27.60;;;;;;5100555;28;20051;-67
2022/04/18 12:30:52;;;;;;;9.23;5.57;;;29.50;27.70;;;;;;5102802;28;20024;-67
2022/04/18 12:33:23;;;;;;;10.05;5.90;;;28.30;25.40;;;;;;5101852;28;20025;-67
2022/04/18 12:35:53;;;;;;;9.13;5.97;;;29.20;28.10;;;;;;5101419;28;20032;-67
2022/04/18 12:38:20;;;;;;;;;;;27.60;26.40;;;;;;5103219;28;20076;-66
2022/04/18 12:40:54;;;;;;;9.18;5.55;;;28.40;28.20;;;;;;5100858;28;19908;-67
2022/04/18 12:43:20;;;;;;;8.88;5.40;;;28.30;28.90;;;;;;5102901;28;20101;-67
2022/04/18 12:45:47;;;;;;;7.75;5.40;;;28.40;27.00;;;;;;5100336;28;20028;-67
2022/04/18 12:48:14;;;;;;;7.85;4.95;;;27.30;28.10;;;;;;5102333;28;20020;-66
2022/04/18 12:50:40;;;;;;;9.38;5.78;;;28.30;28.50;;;;;;5102004;28;20020;-66
2022/04/18 12:53:06;;;;;;;10.15;5.85;;;28.30;27.50;;;;;;5082690;28;20028;-67
2022/04/18 12:55:32;;;;;;;9.88;6.28;;;28.10;28.40;;;;;;5105954;28;20055;-66
2022/04/18 12:57:59;;;;;;;8.13;5.25;;;27.60;26.10;;;;;;5104411;28;20024;-67
2022/04/18 13:00:35;;;;;;;8.68;5.47;;;27.60;27.50;;;;;;5087958;28;20139;-66
2022/04/18 13:03:04;;;;;;;9.70;5.75;;;28.30;28.50;;;;;;5104924;28;20424;-66
2022/04/18 13:05:31;;;;;;;10.25;5.93;;;28.90;27.90;;;;;;5105846;28;20024;-66